• Join FlightAware (Why Join?)
  • Login
  • US Flag 
02:55PM EDT


 

Airport Tracker/Info


-or-


 

Live Flight TrackerFlight Track Log ✈ GJS3710 ✈ 22-May-2013 ✈ KORD - KALB

Flight Track Log - Related Links

Times and Time Zones

All times are in EDT time to prevent confusion due to time zone crossing. See the GJS3710 flight status page for this flight to view local times or setup timezone preferences in your user account.

Time Position Orientation Groundspeed Altitude Reporting Facility
EDT Latitude Longitude Course Direction KTS MPH feet Rate Location/Type
11:15PM 42.0833 -87.8833 37° Northeast 232 267 4,400  Level Chicago TRACON
11:16PM 42.1281 -87.8278 43° Northeast 247 284 5,500 1,740 Climbing Chicago Center
11:17PM 42.1659 -87.3523 66° East  Level FlightAware Approximate
11:17PM 42.1900 -87.7622 38° Northeast 277 319 8,000  Level Chicago Center
11:18PM 42.2133 -87.2102 66° East  Level FlightAware Approximate
11:18PM 42.2311 -87.6725 58° Northeast 312 359 10,700  Level Chicago Center
11:19PM 42.2607 -87.0679 66° East  Level FlightAware Approximate
11:19PM 42.2217 -87.5425 96° East 315 362 12,900  Level Chicago Center
11:20PM 42.2381 -87.4131 80° East 347 399 13,400 840 Climbing Chicago Center
11:21PM 42.2564 -87.2617 81° East 404 465 14,700 1,260 Climbing Chicago Center
11:22PM 42.2744 -87.1056 81° East 420 483 16,000 1,260 Climbing Chicago Center
11:23PM 42.2836 -86.9394 86° East 441 507 17,300 1,500 Climbing Chicago Center
11:24PM 42.2906 -86.7744 87° East 442 509 19,100 1,380 Climbing Chicago Center
11:25PM 42.2969 -86.6133 87° East 454 522 20,200 1,200 Climbing Chicago Center
11:26PM 42.3050 -86.4158 87° East 461 531 21,600 1,140 Climbing Chicago Center
11:27PM 42.3106 -86.2403 87° East 469 540 22,600 1,020 Climbing Chicago Center
11:28PM 42.3158 -86.0636 88° East 474 545 23,700 900 Climbing Chicago Center
11:29PM 42.3133 -85.8831 91° East 481 554 24,500 780 Climbing Chicago Center
11:30PM 42.3111 -85.7011 91° East 486 559 25,300 900 Climbing Chicago Center
11:31PM 42.3089 -85.4811 91° East 491 565 26,400 1,020 Climbing Chicago Center
11:32PM 42.3056 -85.2975 91° East 492 566 27,400 900 Climbing Chicago Center
11:33PM 42.3031 -85.1161 91° East 488 562 28,300 780 Climbing Chicago Center
11:34PM 42.2992 -84.9344 92° East 487 560 29,100 720 Climbing Chicago Center
11:35PM 42.3119 -84.7497 85° East 496 571 29,800 540 Climbing Chicago Center
11:36PM 42.3297 -84.5622 83° East 504 580 30,300 480 Climbing Chicago Center
11:37PM 42.3453 -84.3736 84° East 506 582 30,800 480 Climbing Chicago Center
11:38PM 42.3622 -84.1842 83° East 510 587 31,300 540 Climbing Chicago Center
11:40PM 42.3814 -83.9547 83° East 514 592 31,900 480 Climbing Chicago Center
11:41PM 42.3969 -83.7647 84° East 512 589 32,400 420 Climbing Chicago Center
11:42PM 42.4092 -83.5642 85° East 505 581 32,900 420 Climbing Cleveland Center
11:43PM 42.4242 -83.3736 84° East 505 581 33,400 540 Climbing Cleveland Center
11:44PM 42.4397 -83.1603 84° East 510 587 34,000 540 Climbing Cleveland Center
11:45PM 42.4542 -82.9725 84° East 510 587 34,500 480 Climbing Cleveland Center
11:46PM 42.4683 -82.7814 84° East 510 587 35,000 480 Climbing Cleveland Center
11:47PM 42.4803 -82.5878 85° East 510 587 35,500 480 Climbing Cleveland Center
11:48PM 42.4939 -82.3994 84° East 510 587 36,000 480 Climbing Cleveland Center
11:49PM 42.5050 -82.2111 85° East 505 581 36,500 480 Climbing Cleveland Center
11:50PM 42.5178 -82.0256 85° East 500 575 37,000 480 Climbing Cleveland Center
11:51PM 42.5283 -81.8397 86° East 495 570 37,500 480 Climbing Cleveland Center
11:52PM 42.5428 -81.6597 84° East 495 570 38,000 480 Climbing Cleveland Center
11:53PM 42.5525 -81.4767 86° East 489 563 38,500 480 Climbing Cleveland Center
11:54PM 42.5622 -81.2992 86° East 476 548 39,000 240 Climbing Cleveland Center
11:55PM 42.5714 -81.1386 86° East 483 556 39,000  Level Cleveland Center
11:56PM 42.5825 -80.9583 85° East 477 549 39,000  Level Cleveland Center
11:57PM 42.5914 -80.7750 86° East 483 556 39,000  Level Cleveland Center
11:58PM 42.6019 -80.5944 85° East 483 556 39,000  Level Cleveland Center
11:59PM 42.6103 -80.4167 86° East 474 545 39,000  Level Cleveland Center
12:00AM 42.6203 -80.2306 86° East 482 555 39,000  Level Cleveland Center
12:01AM 42.6297 -80.0331 86° East 481 554 39,000  Level Cleveland Center
12:02AM 42.6394 -79.8692 85° East 476 548 39,000  Level Cleveland Center
12:03AM 42.6464 -79.6883 87° East 476 548 39,000  Level Cleveland Center
12:04AM 42.6533 -79.5075 87° East 481 554 39,000  Level Cleveland Center
12:05AM 42.6639 -79.3267 85° East 481 554 39,000  Level Cleveland Center
12:06AM 42.6700 -79.1458 87° East 481 554 39,000  Level Cleveland Center
12:07AM 42.6761 -78.9622 87° East 481 554 39,000  Level Cleveland Center
12:08AM 42.6817 -78.7814 88° East 481 554 39,000  Level Cleveland Center
12:09AM 42.6892 -78.5975 87° East 481 554 39,000  Level Cleveland Center
12:10AM 42.6942 -78.4164 88° East 481 554 39,000  Level Cleveland Center
12:11AM 42.7011 -78.2325 87° East 481 554 39,000  Level Cleveland Center
12:12AM 42.7053 -78.0458 88° East 481 554 39,000  Level Cleveland Center
12:13AM 42.7056 -77.8650 90° East 481 554 39,000 -480 Level Cleveland Center
12:14AM 42.6653 -77.6719 106° East 476 548 38,100 -1,020 Descending Cleveland Center
12:15AM 42.6231 -77.4933 108° East 488 562 37,000 -1,260 Descending Cleveland Center
12:16AM 42.5886 -77.1900 99° East 507 583 34,900 -1,380 Descending Boston Center
12:17AM 42.6006 -77.0019 85° East 502 578 33,400 -1,500 Descending Boston Center
12:18AM 42.6122 -76.8108 85° East 502 578 31,900 -1,500 Descending Boston Center
12:19AM 42.6236 -76.6197 85° East 502 578 30,400 -1,380 Descending Boston Center
12:20AM 42.6347 -76.4283 85° East 497 572 29,200 -720 Descending Boston Center
12:21AM 42.6453 -76.2456 85° East 492 566 29,000 -120 Descending Boston Center
12:22AM 42.6528 -76.0736 87° East 492 566 29,000 -120 Level Boston Center
12:23AM 42.6628 -75.8878 86° East 492 566 28,800 -1,380 Descending Boston Center
12:24AM 42.6725 -75.7047 86° East 492 566 26,300 -2,520 Descending Boston Center
12:25AM 42.6983 -75.5253 79° East 492 566 23,800 -1,740 Descending Boston Center
12:26AM 42.7531 -75.3469 67° East 492 566 22,900 -1,740 Descending Boston Center
12:27AM 42.7803 -75.1756 78° East 484 557 20,400 -2,580 Descending Boston Center
12:28AM 42.7758 -75.0028 92° East 461 531 17,800 -2,580 Descending Boston Center
12:29AM 42.7733 -74.8358 91° East 455 524 15,300 -2,580 Descending Boston Center
12:30AM 42.7703 -74.6717 91° East 437 503 12,700 -2,160 Descending Boston Center
12:31AM 42.7672 -74.5075 91° East 406 467 11,000 -900 Descending Boston Center
12:32AM 42.7633 -74.3717 92° East 398 458 11,000 -180 Level Boston Center
12:33AM 42.7969 -74.2311 72° East 376 433 10,700 -1,380 Descending Boston Center
12:35AM 42.7767 -74.0478 90° East  Level Estimated
12:36AM 42.8819 -73.9703 90° East 312 359 6,400  Level Boston Center
12:36AM 42.9036 -73.9028 66° East 314 361 4,800 -2,460 Descending Boston Center
12:37AM 42.8778 -73.8114 111° Southeast 267 307 2,500 -1,680 Descending Boston Center
12:38AM 42.8194 -73.8100 179° South 188 216 1,500 -840 Descending Boston Center
12:39AM 42.7819 -73.8092 179° South 102 117 800 -720 Descending Boston Center